Time;durP1;ratioP1;P1;durP2;ratioP2;P2;SDS_P1;SDS_P2;PMS_P1;PMS_P2;Temp;Humidity;BMP_temperature;BMP_pressure;BME280_temperature;BME280_humidity;BME280_pressure;Samples;Min_cycle;Max_cycle;Signal;HPM_P1;HPM_P2
2022/10/29 00:00:38;;;;;;;;;;;20.20;75.40;;;;;;5076129;28;19971;-64
2022/10/29 00:03:04;;;;;;;;;;;20.20;75.40;;;;;;5075830;28;20022;-64
2022/10/29 00:05:29;;;;;;;;;;;20.20;75.30;;;;;;5074983;28;20364;-64
2022/10/29 00:07:55;;;;;;;;;;;20.20;75.40;;;;;;5075528;28;19928;-65
2022/10/29 00:10:20;;;;;;;;;;;20.20;75.30;;;;;;5075407;28;19931;-64
2022/10/29 00:12:46;;;;;;;;;;;20.20;75.30;;;;;;5073678;28;19925;-64
2022/10/29 00:15:11;;;;;;;;;;;20.20;75.40;;;;;;5075378;28;20284;-64
2022/10/29 00:17:37;;;;;;;;;;;20.20;75.30;;;;;;5075198;28;19925;-64
2022/10/29 00:20:02;;;;;;;;;;;20.20;75.30;;;;;;5074947;28;19928;-64
2022/10/29 00:22:28;;;;;;;;;;;20.20;75.30;;;;;;5075133;28;19974;-64
2022/10/29 00:24:53;;;;;;;;;;;20.20;75.30;;;;;;5074403;28;19928;-64
2022/10/29 00:27:19;;;;;;;;;;;20.20;75.30;;;;;;5074629;28;19948;-65
2022/10/29 00:29:47;;;;;;;;;;;20.20;75.30;;;;;;5074189;28;19924;-63
2022/10/29 00:32:13;;;;;;;;;;;20.20;75.30;;;;;;5072569;28;19947;-63
2022/10/29 00:34:38;;;;;;;;;;;20.20;75.30;;;;;;5075397;28;19924;-63
2022/10/29 00:37:04;;;;;;;;;;;20.20;75.20;;;;;;5075429;28;19924;-63
2022/10/29 00:39:31;;;;;;;;;;;20.10;75.20;;;;;;5074327;28;20351;-63
2022/10/29 00:41:57;;;;;;;;;;;20.10;75.20;;;;;;5075050;28;19925;-63
2022/10/29 00:44:29;;;;;;;;;;;20.10;75.20;;;;;;5074541;28;19925;-63
2022/10/29 00:46:59;;;;;;;;;;;20.20;75.20;;;;;;5073770;28;19935;-63
2022/10/29 00:49:25;;;;;;;;;;;20.10;75.20;;;;;;5074797;28;20061;-63
2022/10/29 00:51:50;;;;;;;;;;;20.10;75.20;;;;;;5074839;28;19932;-63
2022/10/29 00:54:16;;;;;;;;;;;20.10;75.20;;;;;;5072515;28;20048;-63
2022/10/29 00:56:42;;;;;;;;;;;20.10;75.20;;;;;;5057180;28;20287;-63
2022/10/29 00:59:07;;;;;;;;;;;20.20;75.20;;;;;;5074252;28;19927;-63
2022/10/29 01:01:33;;;;;;;;;;;20.10;75.10;;;;;;5074191;28;20360;-63
2022/10/29 01:03:59;;;;;;;;;;;20.10;75.10;;;;;;5074940;28;20023;-63
2022/10/29 01:06:24;;;;;;;;;;;20.10;75.10;;;;;;5074298;28;19966;-63
2022/10/29 01:08:50;;;;;;;;;;;20.10;75.10;;;;;;5072756;28;19967;-63
2022/10/29 01:11:20;;;;;;;;;;;20.10;75.10;;;;;;5074451;28;19920;-63
2022/10/29 01:13:51;;;;;;;;;;;20.10;75.10;;;;;;5073608;28;19932;-63
2022/10/29 01:16:27;;;;;;;;;;;20.10;75.10;;;;;;5072575;28;19924;-63
2022/10/29 01:19:00;;;;;;;;;;;20.10;75.10;;;;;;5073370;28;20038;-63
2022/10/29 01:21:33;;;;;;;;;;;20.10;75.00;;;;;;5072458;28;19928;-63
2022/10/29 01:24:37;;;;;;;;;;;20.10;75.00;;;;;;5073377;28;19924;-63
2022/10/29 01:27:09;;;;;;;;;;;20.10;75.00;;;;;;5012746;28;19977;-63
2022/10/29 01:29:40;;;;;;;;;;;20.10;75.00;;;;;;4998381;28;19933;-63
2022/10/29 01:32:08;;;;;;;;;;;20.10;75.00;;;;;;5037716;28;19924;-63
2022/10/29 01:34:57;;;;;;;;;;;20.10;75.00;;;;;;5073155;28;19935;-64
2022/10/29 01:37:27;;;;;;;;;;;20.10;75.00;;;;;;5064318;28;19931;-63
2022/10/29 01:40:02;;;;;;;;;;;20.00;74.90;;;;;;5056483;28;19928;-64
2022/10/29 01:42:30;;;;;;;;;;;20.10;75.00;;;;;;5072869;28;19932;-63
2022/10/29 01:45:06;;;;;;;;;;;20.00;74.90;;;;;;5074271;28;20385;-63
2022/10/29 01:47:35;;;;;;;;;;;20.00;74.80;;;;;;5073170;28;19928;-64
2022/10/29 01:50:01;;;;;;;;;;;20.00;74.80;;;;;;5073486;28;19978;-63
2022/10/29 01:52:28;;;;;;;;;;;20.00;74.80;;;;;;5072864;28;19986;-63
2022/10/29 01:54:53;;;;;;;;;;;20.00;74.80;;;;;;5073902;28;20004;-63
2022/10/29 01:57:37;;;;;;;;;;;20.00;74.80;;;;;;5072853;28;19925;-64
2022/10/29 02:00:02;;;;;;;;;;;20.00;74.80;;;;;;5073899;28;19935;-63
2022/10/29 02:02:39;;;;;;;;;;;20.00;74.80;;;;;;5072348;28;20011;-64
2022/10/29 02:05:08;;;;;;;;;;;20.00;74.90;;;;;;5072240;28;19931;-64
2022/10/29 02:07:35;;;;;;;;;;;20.00;74.90;;;;;;5073538;28;19924;-64
2022/10/29 02:10:04;;;;;;;;;;;20.00;74.80;;;;;;5073285;28;19924;-64
2022/10/29 02:12:30;;;;;;;;;;;20.00;74.80;;;;;;5050957;28;19932;-64
2022/10/29 02:15:02;;;;;;;;;;;20.00;75.40;;;;;;5053613;28;19924;-64
2022/10/29 02:17:31;;;;;;;;;;;20.00;74.80;;;;;;5067842;28;19925;-64
2022/10/29 02:19:57;;;;;;;;;;;20.00;74.80;;;;;;5053259;28;19931;-64
2022/10/29 02:22:22;;;;;;;;;;;20.00;74.80;;;;;;5035120;28;19925;-64
2022/10/29 02:24:47;;;;;;;;;;;20.00;74.80;;;;;;5052877;28;19959;-64
2022/10/29 02:27:13;;;;;;;;;;;20.00;74.80;;;;;;5059913;28;19931;-64
2022/10/29 02:29:38;;;;;;;;;;;20.00;74.80;;;;;;5105617;28;20505;-64
2022/10/29 02:32:04;;;;;;;;;;;20.00;74.70;;;;;;5072230;28;19928;-64
2022/10/29 02:34:29;;;;;;;;;;;20.00;74.80;;;;;;5073016;28;20299;-64
2022/10/29 02:36:55;;;;;;;;;;;20.00;74.70;;;;;;5073580;28;19924;-64
2022/10/29 02:39:20;;;;;;;;;;;20.00;74.70;;;;;;5070995;28;19930;-64
2022/10/29 02:41:46;;;;;;;;;;;19.90;74.60;;;;;;5072867;28;19925;-64
2022/10/29 02:44:11;;;;;;;;;;;19.90;74.60;;;;;;5072674;28;19950;-64
2022/10/29 02:46:40;;;;;;;;;;;19.90;74.60;;;;;;5072250;28;20291;-64
2022/10/29 02:49:06;;;;;;;;;;;19.90;75.20;;;;;;5071893;28;19924;-64
2022/10/29 02:51:31;;;;;;;;;;;19.90;74.60;;;;;;5072891;28;20023;-65
2022/10/29 02:53:57;;;;;;;;;;;20.00;74.60;;;;;;5071984;28;19935;-65
2022/10/29 02:56:22;;;;;;;;;;;19.90;74.50;;;;;;5072671;28;19924;-64
2022/10/29 02:58:48;;;;;;;;;;;19.90;74.50;;;;;;5072732;28;19932;-64
2022/10/29 03:01:13;;;;;;;;;;;19.90;74.50;;;;;;5071880;28;19969;-64
2022/10/29 03:03:39;;;;;;;;;;;19.90;74.50;;;;;;5072792;28;19932;-64
2022/10/29 03:06:10;;;;;;;;;;;19.90;74.50;;;;;;5072618;28;19932;-64
2022/10/29 03:08:36;;;;;;;;;;;19.90;74.50;;;;;;5070809;28;19924;-64
2022/10/29 03:11:01;;;;;;;;;;;19.90;74.50;;;;;;5072937;28;19951;-64
2022/10/29 03:13:26;;;;;;;;;;;19.90;74.50;;;;;;5072239;28;20375;-64
2022/10/29 03:15:52;;;;;;;;;;;19.90;74.50;;;;;;5052203;28;19948;-64
2022/10/29 03:18:17;;;;;;;;;;;19.90;74.50;;;;;;5052183;28;20011;-64
2022/10/29 03:20:44;;;;;;;;;;;19.90;74.40;;;;;;5051952;28;19932;-64
2022/10/29 03:23:09;;;;;;;;;;;19.90;74.50;;;;;;5052219;28;19970;-64
2022/10/29 03:25:35;;;;;;;;;;;19.90;74.40;;;;;;5052721;28;19925;-64
2022/10/29 03:28:00;;;;;;;;;;;19.90;74.50;;;;;;5051924;28;19951;-65
2022/10/29 03:30:26;;;;;;;;;;;19.90;74.50;;;;;;5052182;28;19987;-64
2022/10/29 03:32:51;;;;;;;;;;;19.90;74.40;;;;;;5052435;28;19928;-64
2022/10/29 03:35:17;;;;;;;;;;;19.90;74.40;;;;;;5051568;28;20342;-64
2022/10/29 03:37:42;;;;;;;;;;;19.90;74.40;;;;;;5052132;28;19929;-64
2022/10/29 03:40:08;;;;;;;;;;;19.90;74.40;;;;;;5051989;28;20023;-65
2022/10/29 03:42:33;;;;;;;;;;;19.80;74.30;;;;;;5051982;28;19929;-64
2022/10/29 03:44:59;;;;;;;;;;;19.90;74.30;;;;;;5052538;28;20015;-64
2022/10/29 03:47:25;;;;;;;;;;;19.90;74.30;;;;;;5063363;28;20341;-65
2022/10/29 03:49:52;;;;;;;;;;;19.80;74.20;;;;;;5071031;28;20305;-64
2022/10/29 03:52:18;;;;;;;;;;;19.80;74.20;;;;;;5072043;28;20020;-64
2022/10/29 03:54:43;;;;;;;;;;;19.90;74.20;;;;;;5072503;28;20030;-64
2022/10/29 03:57:09;;;;;;;;;;;19.80;74.10;;;;;;5071426;28;19924;-64
2022/10/29 03:59:34;;;;;;;;;;;19.90;74.20;;;;;;5072121;28;19978;-64
2022/10/29 04:01:59;;;;;;;;;;;19.90;74.20;;;;;;5073099;28;19930;-64
2022/10/29 04:04:25;;;;;;;;;;;19.90;74.30;;;;;;5061372;28;19928;-64
2022/10/29 04:06:50;;;;;;;;;;;19.90;74.40;;;;;;5055031;28;19969;-65
2022/10/29 04:09:16;;;;;;;;;;;19.90;74.30;;;;;;5055285;28;19929;-65
2022/10/29 04:11:41;;;;;;;;;;;19.90;74.40;;;;;;5054818;28;19974;-63
2022/10/29 04:14:07;;;;;;;;;;;19.90;74.40;;;;;;5055529;28;19932;-63
2022/10/29 04:16:32;;;;;;;;;;;19.90;74.30;;;;;;5055767;28;19933;-63
2022/10/29 04:18:58;;;;;;;;;;;19.90;74.40;;;;;;5054538;28;20346;-63
2022/10/29 04:21:23;;;;;;;;;;;19.90;74.40;;;;;;5055144;28;19925;-63
2022/10/29 04:23:49;;;;;;;;;;;19.90;74.30;;;;;;5055175;28;20410;-63
2022/10/29 04:26:14;;;;;;;;;;;20.00;74.40;;;;;;5054825;28;19925;-63
2022/10/29 04:28:40;;;;;;;;;;;20.00;74.40;;;;;;5055536;28;19929;-63
2022/10/29 04:31:05;;;;;;;;;;;20.00;74.30;;;;;;5054701;28;19925;-63
2022/10/29 04:33:31;;;;;;;;;;;20.00;74.40;;;;;;5055248;28;20331;-63
2022/10/29 04:35:57;;;;;;;;;;;20.00;74.30;;;;;;5055364;28;19931;-64
2022/10/29 04:38:22;;;;;;;;;;;20.00;74.40;;;;;;5054322;28;19928;-63
2022/10/29 04:40:48;;;;;;;;;;;20.00;74.20;;;;;;5055049;28;19972;-63
2022/10/29 04:43:13;;;;;;;;;;;20.00;74.20;;;;;;5055113;28;19925;-63
2022/10/29 04:45:39;;;;;;;;;;;20.10;74.30;;;;;;5070107;28;19971;-63
2022/10/29 04:48:04;;;;;;;;;;;20.00;74.20;;;;;;5055408;28;20373;-63
2022/10/29 04:50:30;;;;;;;;;;;20.10;74.20;;;;;;5054358;28;19925;-64
2022/10/29 04:52:58;;;;;;;;;;;20.10;74.20;;;;;;5054260;28;20365;-62
2022/10/29 04:55:24;;;;;;;;;;;20.10;74.20;;;;;;5054893;28;19925;-63
2022/10/29 04:57:49;;;;;;;;;;;20.10;74.20;;;;;;5054674;28;20302;-63
2022/10/29 05:00:15;;;;;;;;;;;20.10;74.10;;;;;;5035873;28;19932;-64
2022/10/29 05:02:40;;;;;;;;;;;20.10;74.10;;;;;;5054348;28;19987;-63
2022/10/29 05:05:06;;;;;;;;;;;20.10;74.10;;;;;;5054177;28;19920;-63
2022/10/29 05:07:32;;;;;;;;;;;20.10;74.10;;;;;;5054103;28;19992;-64
2022/10/29 05:09:57;;;;;;;;;;;20.10;74.10;;;;;;5054527;28;20368;-64
2022/10/29 05:12:22;;;;;;;;;;;20.10;73.80;;;;;;5053549;28;19928;-63
2022/10/29 05:14:48;;;;;;;;;;;20.10;73.90;;;;;;5054006;28;19995;-63
2022/10/29 05:17:13;;;;;;;;;;;20.10;73.90;;;;;;5053957;28;19921;-63
2022/10/29 05:19:39;;;;;;;;;;;20.10;73.90;;;;;;5054532;28;20112;-63
2022/10/29 05:22:04;;;;;;;;;;;20.10;73.90;;;;;;5053980;28;19986;-63
2022/10/29 05:24:30;;;;;;;;;;;20.10;73.90;;;;;;5062268;28;19927;-63
2022/10/29 05:26:55;;;;;;;;;;;20.20;73.90;;;;;;5074430;28;19924;-63
2022/10/29 05:29:21;;;;;;;;;;;20.10;73.90;;;;;;5073595;28;20363;-63
2022/10/29 05:31:46;;;;;;;;;;;20.10;73.90;;;;;;5074062;28;19924;-63
2022/10/29 05:34:12;;;;;;;;;;;20.10;73.90;;;;;;5073173;28;19937;-63
2022/10/29 05:36:37;;;;;;;;;;;20.10;73.90;;;;;;5073936;28;20025;-66
2022/10/29 05:39:03;;;;;;;;;;;20.10;73.90;;;;;;5073256;28;19924;-64
2022/10/29 05:41:28;;;;;;;;;;;20.20;74.00;;;;;;5072812;28;19924;-64
2022/10/29 05:43:54;;;;;;;;;;;20.20;74.00;;;;;;5074039;28;19929;-64
2022/10/29 05:46:19;;;;;;;;;;;20.20;74.10;;;;;;5073692;28;20383;-64
2022/10/29 05:48:44;;;;;;;;;;;20.20;74.10;;;;;;5072832;28;19925;-64
2022/10/29 05:51:10;;;;;;;;;;;20.20;74.10;;;;;;5073666;28;20007;-64
2022/10/29 05:53:35;;;;;;;;;;;20.20;74.10;;;;;;5073324;28;19931;-64
2022/10/29 05:56:01;;;;;;;;;;;20.20;74.10;;;;;;5073486;28;20027;-64
2022/10/29 05:58:26;;;;;;;;;;;20.20;74.20;;;;;;5073439;28;19935;-65
2022/10/29 06:00:52;;;;;;;;;;;20.10;74.10;;;;;;5072382;28;19986;-65
2022/10/29 06:03:18;;;;;;;;;;;20.20;74.20;;;;;;5072434;28;19924;-65
2022/10/29 06:05:44;;;;;;;;;;;20.20;74.30;;;;;;5072532;28;19974;-65
2022/10/29 06:08:10;;;;;;;;;;;20.20;74.10;;;;;;5073069;28;19928;-64
2022/10/29 06:10:35;;;;;;;;;;;20.20;74.20;;;;;;5072626;28;19981;-65
2022/10/29 06:13:01;;;;;;;;;;;20.20;74.10;;;;;;5073507;28;19931;-64
2022/10/29 06:15:26;;;;;;;;;;;20.20;74.10;;;;;;5073239;28;19934;-65
2022/10/29 06:17:52;;;;;;;;;;;20.20;74.20;;;;;;5072557;28;20371;-65
2022/10/29 06:20:18;;;;;;;;;;;20.20;74.10;;;;;;5072938;28;19928;-67
2022/10/29 06:22:44;;;;;;;;;;;20.20;74.20;;;;;;5073128;28;19924;-66
2022/10/29 06:25:09;;;;;;;;;;;20.20;74.20;;;;;;5072069;28;20388;-66
2022/10/29 06:27:35;;;;;;;;;;;20.20;74.30;;;;;;5073447;28;19925;-66
2022/10/29 06:30:00;;;;;;;;;;;20.20;74.30;;;;;;5073331;28;19925;-66
2022/10/29 06:32:26;;;;;;;;;;;20.20;74.30;;;;;;5071154;28;20364;-65
2022/10/29 06:34:51;;;;;;;;;;;20.20;74.30;;;;;;5072963;28;19928;-66
2022/10/29 06:37:17;;;;;;;;;;;20.20;74.20;;;;;;5071114;28;19924;-66
2022/10/29 06:39:42;;;;;;;;;;;20.20;74.20;;;;;;5105039;28;20020;-66
2022/10/29 06:42:08;;;;;;;;;;;20.20;74.30;;;;;;5072265;28;19931;-66
2022/10/29 06:44:33;;;;;;;;;;;20.20;74.30;;;;;;5072266;28;20011;-66
2022/10/29 06:46:59;;;;;;;;;;;20.20;74.30;;;;;;5073181;28;20368;-65
2022/10/29 06:49:24;;;;;;;;;;;20.20;74.30;;;;;;5071101;28;19927;-65
2022/10/29 06:51:50;;;;;;;;;;;20.20;74.30;;;;;;5071931;28;19924;-65
2022/10/29 06:54:15;;;;;;;;;;;20.20;74.30;;;;;;5072488;28;20352;-64
2022/10/29 06:56:41;;;;;;;;;;;20.20;74.30;;;;;;5072956;28;20003;-66
2022/10/29 06:59:06;;;;;;;;;;;20.20;74.30;;;;;;5071099;28;19928;-66
2022/10/29 07:01:32;;;;;;;;;;;20.20;74.30;;;;;;5073184;28;19928;-66
2022/10/29 07:03:58;;;;;;;;;;;20.20;74.30;;;;;;5072599;28;19931;-66
2022/10/29 07:06:23;;;;;;;;;;;20.20;74.30;;;;;;5071631;28;20330;-66
2022/10/29 07:08:49;;;;;;;;;;;20.20;74.40;;;;;;5072861;28;19932;-65
2022/10/29 07:11:14;;;;;;;;;;;20.20;74.40;;;;;;5072568;28;20342;-65
2022/10/29 07:13:40;;;;;;;;;;;20.20;74.50;;;;;;5071050;28;19931;-65
2022/10/29 07:16:05;;;;;;;;;;;20.20;74.50;;;;;;5071985;28;19978;-66
2022/10/29 07:18:31;;;;;;;;;;;20.20;74.50;;;;;;5072462;28;19924;-65
2022/10/29 07:20:57;;;;;;;;;;;20.20;74.60;;;;;;5069905;28;20018;-65
2022/10/29 07:23:22;;;;;;;;;;;20.20;74.50;;;;;;5071294;28;19928;-66
2022/10/29 07:25:50;;;;;;;;;;;20.20;74.50;;;;;;5072628;28;19947;-66
2022/10/29 07:28:16;;;;;;;;;;;20.20;74.50;;;;;;5071742;28;19932;-62
2022/10/29 07:30:42;;;;;;;;;;;20.20;74.50;;;;;;5072539;28;20407;-65
2022/10/29 07:33:08;;;;;;;;;;;20.20;74.40;;;;;;5072171;28;19925;-65
2022/10/29 07:35:33;;;;;;;;;;;20.20;74.30;;;;;;5073749;28;19924;-66
2022/10/29 07:37:59;;;;;;;;;;;20.20;74.50;;;;;;5076650;28;20272;-65
2022/10/29 07:40:25;;;;;;;;;;;20.20;75.00;;;;;;5075891;28;19925;-65
2022/10/29 07:42:51;;;;;;;;;;;20.20;74.50;;;;;;5075937;28;20394;-65
2022/10/29 07:45:16;;;;;;;;;;;20.20;74.60;;;;;;5075518;28;19956;-66
2022/10/29 07:47:42;;;;;;;;;;;20.20;74.60;;;;;;5076248;28;19924;-66
2022/10/29 07:50:07;;;;;;;;;;;20.20;74.60;;;;;;5056794;28;19931;-67
2022/10/29 07:52:33;;;;;;;;;;;20.20;74.60;;;;;;5075844;28;20494;-66
2022/10/29 07:55:00;;;;;;;;;;;20.20;74.60;;;;;;5075035;28;19963;-66
2022/10/29 07:57:25;;;;;;;;;;;20.20;74.60;;;;;;5075035;28;20383;-67
2022/10/29 07:59:51;;;;;;;;;;;20.20;74.70;;;;;;5075953;28;20007;-67
2022/10/29 08:02:16;;;;;;;;;;;20.20;75.30;;;;;;5074383;28;19924;-66
2022/10/29 08:04:42;;;;;;;;;;;20.20;74.80;;;;;;5076284;28;19952;-66
2022/10/29 08:07:07;;;;;;;;;;;20.20;74.80;;;;;;5075500;28;20269;-68
2022/10/29 08:09:33;;;;;;;;;;;20.20;74.80;;;;;;5075430;28;20031;-67
2022/10/29 08:11:58;;;;;;;;;;;20.20;74.80;;;;;;5076003;28;19925;-65
2022/10/29 08:14:24;;;;;;;;;;;20.20;74.90;;;;;;5074809;28;19924;-65
2022/10/29 08:16:51;;;;;;;;;;;20.20;74.80;;;;;;5074877;28;20406;-65
2022/10/29 08:19:17;;;;;;;;;;;20.20;74.70;;;;;;5075415;28;20022;-65
2022/10/29 08:21:42;;;;;;;;;;;20.20;74.90;;;;;;5075685;28;20020;-64
2022/10/29 08:24:08;;;;;;;;;;;20.30;74.90;;;;;;5074091;28;20117;-65
2022/10/29 08:26:34;;;;;;;;;;;20.30;75.00;;;;;;5075255;28;20391;-64
2022/10/29 08:28:59;;;;;;;;;;;20.30;74.90;;;;;;5069439;28;19931;-64
2022/10/29 08:31:25;;;;;;;;;;;20.30;74.90;;;;;;5068422;28;19977;-64
2022/10/29 08:33:50;;;;;;;;;;;20.30;74.90;;;;;;5074734;28;19931;-64
2022/10/29 08:36:16;;;;;;;;;;;20.30;74.90;;;;;;5073779;28;20399;-65
2022/10/29 08:38:41;;;;;;;;;;;20.20;74.90;;;;;;5071727;28;19924;-65
2022/10/29 08:41:07;;;;;;;;;;;20.30;75.00;;;;;;5074512;28;19925;-65
2022/10/29 08:43:45;;;;;;;;;;;20.30;74.90;;;;;;5075183;28;19935;-65
2022/10/29 08:46:15;;;;;;;;;;;20.30;74.90;;;;;;5051932;28;19928;-66
2022/10/29 08:48:47;;;;;;;;;;;20.30;74.90;;;;;;5037072;28;20008;-66
2022/10/29 08:51:20;;;;;;;;;;;20.30;74.80;;;;;;5054326;28;19979;-66
2022/10/29 08:53:46;;;;;;;;;;;20.30;74.90;;;;;;5037092;28;19975;-65
2022/10/29 08:56:14;;;;;;;;;;;20.30;74.80;;;;;;5054886;28;19940;-66
2022/10/29 08:58:44;;;;;;;;;;;20.30;74.90;;;;;;5036635;28;19948;-66
2022/10/29 09:01:10;;;;;;;;;;;20.30;74.90;;;;;;5054702;28;19947;-65
2022/10/29 09:03:35;;;;;;;;;;;20.30;74.90;;;;;;5054831;28;20346;-65
2022/10/29 09:06:01;;;;;;;;;;;20.30;74.90;;;;;;5054199;28;19924;-65
2022/10/29 09:08:44;;;;;;;;;;;20.30;74.90;;;;;;5054757;28;19933;-66
2022/10/29 09:11:28;;;;;;;;;;;20.30;74.80;;;;;;5054411;28;19928;-67
2022/10/29 09:13:57;;;;;;;;;;;20.30;74.80;;;;;;5054444;28;19925;-69
2022/10/29 09:16:24;;;;;;;;;;;20.30;74.80;;;;;;5039814;28;19925;-66
2022/10/29 09:18:59;;;;;;;;;;;20.30;74.60;;;;;;5055900;28;19925;-67
2022/10/29 09:21:27;;;;;;;;;;;20.30;74.60;;;;;;5071998;28;19932;-65
2022/10/29 09:24:12;;;;;;;;;;;20.30;74.70;;;;;;5073365;28;19925;-66
2022/10/29 09:26:51;;;;;;;;;;;20.30;75.00;;;;;;5054765;28;19936;-66
2022/10/29 09:29:27;;;;;;;;;;;20.30;75.10;;;;;;5089593;28;20411;-65
2022/10/29 09:31:54;;;;;;;;;;;20.30;75.20;;;;;;5074070;28;19924;-64
2022/10/29 09:34:28;;;;;;;;;;;20.30;75.20;;;;;;5088844;28;19931;-67
2022/10/29 09:36:54;;;;;;;;;;;20.30;75.20;;;;;;5074388;28;19972;-65
2022/10/29 09:39:25;;;;;;;;;;;20.40;75.20;;;;;;5089263;28;19974;-65
2022/10/29 09:41:52;;;;;;;;;;;20.40;75.40;;;;;;5073101;28;20372;-66
2022/10/29 09:44:22;;;;;;;;;;;20.40;75.40;;;;;;5073495;28;20287;-65
2022/10/29 09:47:00;;;;;;;;;;;20.40;75.40;;;;;;5074083;28;19956;-65
2022/10/29 09:49:32;;;;;;;;;;;20.40;75.50;;;;;;5055099;28;20029;-65
2022/10/29 09:52:29;;;;;;;;;;;20.40;75.50;;;;;;5073830;28;19947;-64
2022/10/29 09:54:56;;;;;;;;;;;20.40;75.40;;;;;;5028332;28;19979;-65
2022/10/29 09:57:22;;;;;;;;;;;20.40;75.40;;;;;;5073414;28;20383;-65
2022/10/29 10:00:06;;;;;;;;;;;20.50;75.50;;;;;;5073932;28;19924;-65
2022/10/29 10:02:34;;;;;;;;;;;20.50;75.50;;;;;;5072361;28;20399;-65
2022/10/29 10:05:03;;;;;;;;;;;20.50;75.50;;;;;;5072682;28;19925;-65
2022/10/29 10:07:29;;;;;;;;;;;20.50;75.50;;;;;;5073387;28;19925;-64
2022/10/29 10:09:55;;;;;;;;;;;20.50;75.60;;;;;;5072975;28;20062;-65
2022/10/29 10:12:22;;;;;;;;;;;20.50;75.50;;;;;;5073288;28;19925;-65
2022/10/29 10:14:47;;;;;;;;;;;20.50;75.50;;;;;;5073575;28;20057;-65
2022/10/29 10:17:13;;;;;;;;;;;20.50;75.60;;;;;;5071576;28;20396;-65
2022/10/29 10:19:43;;;;;;;;;;;20.50;75.40;;;;;;5076526;28;19920;-66
2022/10/29 10:22:16;;;;;;;;;;;20.50;75.20;;;;;;5073242;28;20383;-65
2022/10/29 10:24:42;;;;;;;;;;;20.50;75.30;;;;;;5068522;28;19921;-65
2022/10/29 10:27:16;;;;;;;;;;;20.50;75.30;;;;;;5071930;28;19947;-65
2022/10/29 10:29:42;;;;;;;;;;;20.50;75.40;;;;;;5072590;28;19924;-65
2022/10/29 10:32:08;;;;;;;;;;;20.60;75.60;;;;;;5072067;28;20294;-65
2022/10/29 10:34:35;;;;;;;;;;;20.60;75.50;;;;;;5072548;28;19931;-66
2022/10/29 10:37:01;;;;;;;;;;;20.60;75.50;;;;;;5071918;28;19925;-65
2022/10/29 10:39:43;;;;;;;;;;;20.60;75.50;;;;;;5054403;28;20027;-66
2022/10/29 10:42:22;;;;;;;;;;;20.60;75.40;;;;;;5072495;28;19970;-65
2022/10/29 10:44:51;;;;;;;;;;;20.60;75.40;;;;;;5072529;28;19968;-66
2022/10/29 10:47:20;;;;;;;;;;;20.60;75.40;;;;;;5071762;28;19925;-64
2022/10/29 10:49:46;;;;;;;;;;;20.60;75.50;;;;;;5086934;28;19925;-63
2022/10/29 10:52:13;;;;;;;;;;;20.60;75.60;;;;;;5053568;28;20337;-64
2022/10/29 10:54:40;;;;;;;;;;;20.60;75.60;;;;;;5072113;28;20400;-63
2022/10/29 10:57:09;;;;;;;;;;;20.60;75.60;;;;;;5078112;28;19959;-64
2022/10/29 10:59:39;;;;;;;;;;;20.60;75.60;;;;;;5069066;28;20364;-64
2022/10/29 11:02:05;;;;;;;;;;;20.60;75.70;;;;;;5071669;28;19970;-63
2022/10/29 11:04:32;;;;;;;;;;;20.60;75.70;;;;;;5053270;28;19947;-64
2022/10/29 11:06:58;;;;;;;;;;;20.60;75.80;;;;;;5068574;28;20260;-64
2022/10/29 11:09:40;;;;;;;;;;;20.60;75.80;;;;;;5070346;28;20474;-63
2022/10/29 11:12:14;;;;;;;;;;;20.60;75.80;;;;;;5085737;28;19924;-64
2022/10/29 11:14:41;;;;;;;;;;;20.60;75.80;;;;;;5052003;28;19978;-64
2022/10/29 11:17:23;;;;;;;;;;;20.60;75.80;;;;;;5072134;28;19931;-64
2022/10/29 11:19:48;;;;;;;;;;;20.60;75.80;;;;;;5086079;28;19931;-64
2022/10/29 11:22:33;;;;;;;;;;;20.60;75.90;;;;;;5053714;28;20299;-64
2022/10/29 11:25:25;;;;;;;;;;;20.60;75.90;;;;;;5070278;28;20008;-64
2022/10/29 11:27:52;;;;;;;;;;;20.60;75.90;;;;;;5039336;28;20292;-64
2022/10/29 11:30:18;;;;;;;;;;;20.60;75.90;;;;;;5054360;28;20019;-64
2022/10/29 11:32:45;;;;;;;;;;;20.60;75.90;;;;;;5071564;28;20023;-64
2022/10/29 11:35:12;;;;;;;;;;;20.60;76.00;;;;;;5071300;28;19924;-64
2022/10/29 11:37:41;;;;;;;;;;;20.60;76.00;;;;;;5054627;28;20023;-65
2022/10/29 11:40:13;;;;;;;;;;;20.60;76.00;;;;;;5070648;28;19924;-65
2022/10/29 11:42:39;;;;;;;;;;;20.60;76.00;;;;;;5071515;28;20433;-64
2022/10/29 11:45:09;;;;;;;;;;;20.60;76.00;;;;;;5071735;28;19925;-64
2022/10/29 11:47:34;;;;;;;;;;;20.60;76.10;;;;;;5053638;28;19935;-64
2022/10/29 11:50:05;;;;;;;;;;;20.60;76.60;;;;;;5071839;28;20007;-64
2022/10/29 11:52:46;;;;;;;;;;;20.60;76.10;;;;;;5051029;28;20371;-64
2022/10/29 11:55:18;;;;;;;;;;;20.60;76.10;;;;;;5069501;28;19928;-64
2022/10/29 11:57:50;;;;;;;;;;;20.60;76.10;;;;;;5045850;28;20264;-63
2022/10/29 12:00:18;;;;;;;;;;;20.60;76.10;;;;;;5071142;28;19978;-64
2022/10/29 12:02:44;;;;;;;;;;;20.60;76.80;;;;;;5070657;28;19924;-64
2022/10/29 12:05:21;;;;;;;;;;;20.60;76.20;;;;;;5070378;28;19924;-64
2022/10/29 12:07:59;;;;;;;;;;;20.60;76.80;;;;;;5072188;28;19926;-63
2022/10/29 12:10:30;;;;;;;;;;;20.60;76.20;;;;;;5071256;28;20437;-64
2022/10/29 12:12:56;;;;;;;;;;;20.60;76.20;;;;;;5071882;28;20285;-64
2022/10/29 12:15:25;;;;;;;;;;;20.60;76.20;;;;;;5064685;28;20457;-62
2022/10/29 12:17:54;;;;;;;;;;;20.70;76.30;;;;;;5049603;28;19928;-64
2022/10/29 12:20:23;;;;;;;;;;;20.60;76.10;;;;;;5070866;28;19924;-64
2022/10/29 12:22:56;;;;;;;;;;;20.70;76.20;;;;;;5072135;28;20257;-64
2022/10/29 12:25:42;;;;;;;;;;;20.60;76.20;;;;;;5053852;28;19925;-64
2022/10/29 12:28:17;;;;;;;;;;;20.70;76.20;;;;;;5066487;28;20419;-65
2022/10/29 12:30:46;;;;;;;;;;;20.70;76.20;;;;;;5074530;28;19924;-65
2022/10/29 12:33:31;;;;;;;;;;;20.70;76.20;;;;;;5057617;28;19963;-65
2022/10/29 12:35:58;;;;;;;;;;;20.70;76.30;;;;;;5055074;28;20270;-65
2022/10/29 12:38:29;;;;;;;;;;;20.70;76.30;;;;;;5054224;28;19927;-63
2022/10/29 12:40:58;;;;;;;;;;;20.70;76.90;;;;;;5054902;28;19979;-64
2022/10/29 12:43:27;;;;;;;;;;;20.70;76.10;;;;;;5054121;28;19994;-64
2022/10/29 12:46:11;;;;;;;;;;;20.70;76.10;;;;;;5054110;28;19932;-64
2022/10/29 12:48:40;;;;;;;;;;;20.70;76.10;;;;;;5055008;28;19933;-64
2022/10/29 12:51:12;;;;;;;;;;;20.70;76.20;;;;;;5052980;28;20011;-65
2022/10/29 12:53:54;;;;;;;;;;;20.70;76.30;;;;;;5055028;28;19932;-65
2022/10/29 12:56:19;;;;;;;;;;;20.70;76.30;;;;;;5053757;28;20371;-64
2022/10/29 12:58:51;;;;;;;;;;;20.70;76.40;;;;;;5052948;28;19921;-64
2022/10/29 13:01:27;;;;;;;;;;;20.70;76.30;;;;;;5063003;28;19925;-64
2022/10/29 13:03:56;;;;;;;;;;;20.70;76.40;;;;;;5074620;28;19925;-64
2022/10/29 13:06:40;;;;;;;;;;;20.70;76.40;;;;;;5073856;28;19960;-64
2022/10/29 13:09:15;;;;;;;;;;;20.70;76.40;;;;;;5074276;28;20295;-64
2022/10/29 13:12:08;;;;;;;;;;;20.70;76.40;;;;;;5074006;28;19928;-63
2022/10/29 13:14:36;;;;;;;;;;;20.70;76.40;;;;;;5070964;28;20391;-63
2022/10/29 13:17:03;;;;;;;;;;;20.70;76.40;;;;;;5074059;28;20061;-62
2022/10/29 13:19:33;;;;;;;;;;;20.70;76.40;;;;;;5073040;28;19932;-65
2022/10/29 13:22:00;;;;;;;;;;;20.70;76.40;;;;;;5074033;28;19924;-65
2022/10/29 13:24:26;;;;;;;;;;;20.80;76.40;;;;;;5074271;28;19925;-64
2022/10/29 13:26:52;;;;;;;;;;;20.80;76.40;;;;;;5072099;28;20346;-65
2022/10/29 13:29:36;;;;;;;;;;;20.80;76.40;;;;;;5073712;28;20012;-66
2022/10/29 13:32:04;;;;;;;;;;;20.80;76.30;;;;;;5074148;28;20296;-65
2022/10/29 13:34:48;;;;;;;;;;;20.80;76.20;;;;;;5061748;28;19977;-65
2022/10/29 13:37:32;;;;;;;;;;;20.80;76.20;;;;;;5073430;28;20400;-65
2022/10/29 13:40:16;;;;;;;;;;;20.90;76.30;;;;;;5072947;28;20003;-65
2022/10/29 13:42:42;;;;;;;;;;;20.80;76.20;;;;;;5073313;28;19924;-64
2022/10/29 13:45:09;;;;;;;;;;;20.90;76.30;;;;;;5057906;28;19951;-64
2022/10/29 13:47:34;;;;;;;;;;;20.80;76.30;;;;;;5073440;28;19931;-65
2022/10/29 13:50:00;;;;;;;;;;;20.80;76.20;;;;;;5074095;28;19924;-64
2022/10/29 13:52:25;;;;;;;;;;;20.80;76.20;;;;;;5072936;28;19928;-65
2022/10/29 13:54:58;;;;;;;;;;;20.80;76.20;;;;;;5072905;28;19924;-64
2022/10/29 13:57:27;;;;;;;;;;;20.80;76.10;;;;;;5073617;28;19929;-65
2022/10/29 14:00:05;;;;;;;;;;;20.80;76.20;;;;;;5074039;28;19925;-65
2022/10/29 14:02:43;;;;;;;;;;;20.80;76.20;;;;;;5072172;28;19928;-65
2022/10/29 14:05:14;;;;;;;;;;;20.90;76.20;;;;;;5073333;28;19970;-65
2022/10/29 14:07:48;;;;;;;;;;;20.90;76.30;;;;;;5073011;28;19979;-65
2022/10/29 14:10:19;;;;;;;;;;;20.90;76.30;;;;;;5073397;28;19932;-65
2022/10/29 14:12:45;;;;;;;;;;;21.00;76.30;;;;;;5072142;28;19971;-65
2022/10/29 14:15:11;;;;;;;;;;;21.00;76.30;;;;;;5070668;28;20007;-64
2022/10/29 14:17:38;;;;;;;;;;;21.00;76.20;;;;;;5073603;28;19920;-64
2022/10/29 14:20:04;;;;;;;;;;;21.00;76.20;;;;;;5055728;28;20052;-65
2022/10/29 14:22:34;;;;;;;;;;;21.10;76.20;;;;;;5072097;28;20416;-65